sensor_id;sensor_type;location;lat;lon;timestamp;temperature;humidity
23562;DHT22;11959;49.418;8.728;2023-05-19T00:01:55;12.90;99.90
23562;DHT22;11959;49.418;8.728;2023-05-19T00:04:21;13.00;99.90
23562;DHT22;11959;49.418;8.728;2023-05-19T00:06:50;13.00;99.90
23562;DHT22;11959;49.418;8.728;2023-05-19T00:09:16;13.00;99.90
23562;DHT22;11959;49.418;8.728;2023-05-19T00:11:42;13.00;99.90
23562;DHT22;11959;49.418;8.728;2023-05-19T00:14:08;13.00;99.90
23562;DHT22;11959;49.418;8.728;2023-05-19T00:16:35;13.00;99.90
23562;DHT22;11959;49.418;8.728;2023-05-19T00:19:03;13.00;99.90
23562;DHT22;11959;49.418;8.728;2023-05-19T00:21:29;12.90;99.90
23562;DHT22;11959;49.418;8.728;2023-05-19T00:23:56;12.90;99.90
23562;DHT22;11959;49.418;8.728;2023-05-19T00:26:22;12.90;99.90
23562;DHT22;11959;49.418;8.728;2023-05-19T00:28:51;12.80;99.90
23562;DHT22;11959;49.418;8.728;2023-05-19T00:31:17;12.80;99.90
23562;DHT22;11959;49.418;8.728;2023-05-19T00:33:43;12.80;99.90
23562;DHT22;11959;49.418;8.728;2023-05-19T00:36:09;12.70;99.90
23562;DHT22;11959;49.418;8.728;2023-05-19T00:38:35;12.70;99.90
23562;DHT22;11959;49.418;8.728;2023-05-19T00:41:02;12.70;99.90
23562;DHT22;11959;49.418;8.728;2023-05-19T00:43:28;12.60;99.90
23562;DHT22;11959;49.418;8.728;2023-05-19T00:45:58;12.60;99.90
23562;DHT22;11959;49.418;8.728;2023-05-19T00:48:25;12.50;99.90
23562;DHT22;11959;49.418;8.728;2023-05-19T00:50:52;12.60;99.90
23562;DHT22;11959;49.418;8.728;2023-05-19T00:53:19;12.50;99.90
23562;DHT22;11959;49.418;8.728;2023-05-19T00:55:45;12.50;99.90
23562;DHT22;11959;49.418;8.728;2023-05-19T00:58:11;12.40;99.90
23562;DHT22;11959;49.418;8.728;2023-05-19T01:00:38;12.40;99.90
23562;DHT22;11959;49.418;8.728;2023-05-19T01:03:05;12.40;99.90
23562;DHT22;11959;49.418;8.728;2023-05-19T01:05:39;12.40;99.90
23562;DHT22;11959;49.418;8.728;2023-05-19T01:08:12;12.30;99.90
23562;DHT22;11959;49.418;8.728;2023-05-19T01:10:38;12.30;99.90
23562;DHT22;11959;49.418;8.728;2023-05-19T01:13:04;12.30;99.90
23562;DHT22;11959;49.418;8.728;2023-05-19T01:18:24;12.20;99.90
23562;DHT22;11959;49.418;8.728;2023-05-19T01:23:53;12.10;99.90
23562;DHT22;11959;49.418;8.728;2023-05-19T01:29:55;12.10;99.90
23562;DHT22;11959;49.418;8.728;2023-05-19T01:32:23;12.10;99.90
23562;DHT22;11959;49.418;8.728;2023-05-19T01:34:50;12.00;99.90
23562;DHT22;11959;49.418;8.728;2023-05-19T01:37:16;12.00;99.90
23562;DHT22;11959;49.418;8.728;2023-05-19T01:39:44;11.90;99.90
23562;DHT22;11959;49.418;8.728;2023-05-19T01:42:11;12.00;99.90
23562;DHT22;11959;49.418;8.728;2023-05-19T01:44:37;11.90;99.90
23562;DHT22;11959;49.418;8.728;2023-05-19T01:47:03;11.90;99.90
23562;DHT22;11959;49.418;8.728;2023-05-19T01:49:29;11.90;99.90
23562;DHT22;11959;49.418;8.728;2023-05-19T01:51:55;11.90;99.90
23562;DHT22;11959;49.418;8.728;2023-05-19T01:54:21;11.90;99.90
23562;DHT22;11959;49.418;8.728;2023-05-19T02:05:35;11.90;99.90
23562;DHT22;11959;49.418;8.728;2023-05-19T02:10:54;11.80;99.90
23562;DHT22;11959;49.418;8.728;2023-05-19T02:13:23;11.80;99.90
23562;DHT22;11959;49.418;8.728;2023-05-19T02:15:54;11.80;99.90
23562;DHT22;11959;49.418;8.728;2023-05-19T02:18:24;11.80;99.90
23562;DHT22;11959;49.418;8.728;2023-05-19T02:20:50;11.80;99.90
23562;DHT22;11959;49.418;8.728;2023-05-19T02:23:15;11.80;99.90
23562;DHT22;11959;49.418;8.728;2023-05-19T02:25:41;11.80;99.90
23562;DHT22;11959;49.418;8.728;2023-05-19T02:28:07;11.80;99.90
23562;DHT22;11959;49.418;8.728;2023-05-19T02:30:33;11.80;99.90
23562;DHT22;11959;49.418;8.728;2023-05-19T02:32:58;11.70;99.90
23562;DHT22;11959;49.418;8.728;2023-05-19T02:35:24;11.70;99.90
23562;DHT22;11959;49.418;8.728;2023-05-19T02:37:50;11.80;99.90
23562;DHT22;11959;49.418;8.728;2023-05-19T02:40:16;11.70;99.90
23562;DHT22;11959;49.418;8.728;2023-05-19T02:42:42;11.70;99.90
23562;DHT22;11959;49.418;8.728;2023-05-19T02:45:08;11.70;99.90
23562;DHT22;11959;49.418;8.728;2023-05-19T02:47:33;11.60;99.90
23562;DHT22;11959;49.418;8.728;2023-05-19T02:49:59;11.60;99.90
23562;DHT22;11959;49.418;8.728;2023-05-19T02:52:25;11.60;99.90
23562;DHT22;11959;49.418;8.728;2023-05-19T02:54:50;11.70;99.90
23562;DHT22;11959;49.418;8.728;2023-05-19T02:57:16;11.70;99.90
23562;DHT22;11959;49.418;8.728;2023-05-19T02:59:41;11.60;99.90
23562;DHT22;11959;49.418;8.728;2023-05-19T03:02:07;11.60;99.90
23562;DHT22;11959;49.418;8.728;2023-05-19T03:04:33;11.70;99.90
23562;DHT22;11959;49.418;8.728;2023-05-19T03:07:06;11.60;99.90
23562;DHT22;11959;49.418;8.728;2023-05-19T03:09:31;11.60;99.90
23562;DHT22;11959;49.418;8.728;2023-05-19T03:11:57;11.50;99.90
23562;DHT22;11959;49.418;8.728;2023-05-19T03:14:28;11.50;99.90
23562;DHT22;11959;49.418;8.728;2023-05-19T03:16:54;11.50;99.90
23562;DHT22;11959;49.418;8.728;2023-05-19T03:19:20;11.50;99.90
23562;DHT22;11959;49.418;8.728;2023-05-19T03:21:46;11.50;99.90
23562;DHT22;11959;49.418;8.728;2023-05-19T03:24:12;11.50;99.90
23562;DHT22;11959;49.418;8.728;2023-05-19T03:26:37;11.50;99.90
23562;DHT22;11959;49.418;8.728;2023-05-19T03:29:03;11.40;99.90
23562;DHT22;11959;49.418;8.728;2023-05-19T03:31:29;11.40;99.90
23562;DHT22;11959;49.418;8.728;2023-05-19T03:33:55;11.40;99.90
23562;DHT22;11959;49.418;8.728;2023-05-19T03:36:22;11.40;99.90
23562;DHT22;11959;49.418;8.728;2023-05-19T03:38:48;11.50;99.90
23562;DHT22;11959;49.418;8.728;2023-05-19T03:41:14;11.50;99.90
23562;DHT22;11959;49.418;8.728;2023-05-19T03:43:39;11.50;99.90
23562;DHT22;11959;49.418;8.728;2023-05-19T03:46:05;11.50;99.90
23562;DHT22;11959;49.418;8.728;2023-05-19T03:48:31;11.60;99.90
23562;DHT22;11959;49.418;8.728;2023-05-19T03:50:56;11.60;99.90
23562;DHT22;11959;49.418;8.728;2023-05-19T03:53:22;11.60;99.90
23562;DHT22;11959;49.418;8.728;2023-05-19T03:55:48;11.60;99.90
23562;DHT22;11959;49.418;8.728;2023-05-19T03:58:14;11.70;99.90
23562;DHT22;11959;49.418;8.728;2023-05-19T04:00:41;11.70;99.90
23562;DHT22;11959;49.418;8.728;2023-05-19T04:03:07;11.70;99.90
23562;DHT22;11959;49.418;8.728;2023-05-19T04:05:33;11.70;99.90
23562;DHT22;11959;49.418;8.728;2023-05-19T04:07:58;11.70;99.90
23562;DHT22;11959;49.418;8.728;2023-05-19T04:10:24;11.60;99.90
23562;DHT22;11959;49.418;8.728;2023-05-19T04:12:50;11.70;99.90
23562;DHT22;11959;49.418;8.728;2023-05-19T04:15:15;11.70;99.90
23562;DHT22;11959;49.418;8.728;2023-05-19T04:17:41;11.70;99.90
23562;DHT22;11959;49.418;8.728;2023-05-19T04:20:07;11.70;99.90
23562;DHT22;11959;49.418;8.728;2023-05-19T04:22:34;11.70;99.90
23562;DHT22;11959;49.418;8.728;2023-05-19T04:24:59;11.80;99.90
23562;DHT22;11959;49.418;8.728;2023-05-19T04:27:36;11.80;99.90
23562;DHT22;11959;49.418;8.728;2023-05-19T04:30:08;11.80;99.90
23562;DHT22;11959;49.418;8.728;2023-05-19T04:32:34;11.80;99.90
23562;DHT22;11959;49.418;8.728;2023-05-19T04:35:02;11.80;99.90
23562;DHT22;11959;49.418;8.728;2023-05-19T04:37:28;11.90;99.90
23562;DHT22;11959;49.418;8.728;2023-05-19T04:39:54;11.90;99.90
23562;DHT22;11959;49.418;8.728;2023-05-19T04:42:20;11.90;99.90
23562;DHT22;11959;49.418;8.728;2023-05-19T04:44:46;12.00;99.90
23562;DHT22;11959;49.418;8.728;2023-05-19T04:47:14;12.00;99.90
23562;DHT22;11959;49.418;8.728;2023-05-19T04:49:39;12.00;99.90
23562;DHT22;11959;49.418;8.728;2023-05-19T04:52:09;12.00;99.90
23562;DHT22;11959;49.418;8.728;2023-05-19T04:54:35;12.00;99.90
23562;DHT22;11959;49.418;8.728;2023-05-19T04:57:02;12.00;99.90
23562;DHT22;11959;49.418;8.728;2023-05-19T04:59:28;12.10;99.90
23562;DHT22;11959;49.418;8.728;2023-05-19T05:01:53;12.10;99.90
23562;DHT22;11959;49.418;8.728;2023-05-19T05:04:20;12.20;99.90
23562;DHT22;11959;49.418;8.728;2023-05-19T05:06:46;12.30;99.90
23562;DHT22;11959;49.418;8.728;2023-05-19T05:09:16;12.30;99.90
23562;DHT22;11959;49.418;8.728;2023-05-19T05:11:42;12.30;99.90
23562;DHT22;11959;49.418;8.728;2023-05-19T05:14:09;12.30;99.90
23562;DHT22;11959;49.418;8.728;2023-05-19T05:16:35;12.40;99.90
23562;DHT22;11959;49.418;8.728;2023-05-19T05:19:01;12.40;99.90
23562;DHT22;11959;49.418;8.728;2023-05-19T05:21:27;12.40;99.90
23562;DHT22;11959;49.418;8.728;2023-05-19T05:23:53;12.50;99.90
23562;DHT22;11959;49.418;8.728;2023-05-19T05:26:20;12.60;99.90
23562;DHT22;11959;49.418;8.728;2023-05-19T05:28:48;12.60;99.90
23562;DHT22;11959;49.418;8.728;2023-05-19T05:31:14;12.60;99.90
23562;DHT22;11959;49.418;8.728;2023-05-19T05:33:40;12.70;99.90
23562;DHT22;11959;49.418;8.728;2023-05-19T05:36:06;12.70;99.90
23562;DHT22;11959;49.418;8.728;2023-05-19T05:38:32;12.70;99.90
23562;DHT22;11959;49.418;8.728;2023-05-19T05:40:58;12.80;99.90
23562;DHT22;11959;49.418;8.728;2023-05-19T05:43:23;12.90;99.90
23562;DHT22;11959;49.418;8.728;2023-05-19T05:45:49;12.90;99.90
23562;DHT22;11959;49.418;8.728;2023-05-19T05:48:15;13.00;99.90
23562;DHT22;11959;49.418;8.728;2023-05-19T05:50:42;13.10;99.90
23562;DHT22;11959;49.418;8.728;2023-05-19T05:53:09;13.20;99.90
23562;DHT22;11959;49.418;8.728;2023-05-19T05:55:39;13.30;99.90
23562;DHT22;11959;49.418;8.728;2023-05-19T05:58:04;13.40;99.90
23562;DHT22;11959;49.418;8.728;2023-05-19T06:00:30;13.50;99.90
23562;DHT22;11959;49.418;8.728;2023-05-19T06:02:56;13.60;99.90
23562;DHT22;11959;49.418;8.728;2023-05-19T06:05:23;13.60;99.90
23562;DHT22;11959;49.418;8.728;2023-05-19T06:07:49;13.70;99.90
23562;DHT22;11959;49.418;8.728;2023-05-19T06:10:15;13.70;99.90
23562;DHT22;11959;49.418;8.728;2023-05-19T06:12:41;13.70;99.90
23562;DHT22;11959;49.418;8.728;2023-05-19T06:15:07;13.80;99.90
23562;DHT22;11959;49.418;8.728;2023-05-19T06:17:33;13.90;99.90
23562;DHT22;11959;49.418;8.728;2023-05-19T06:20:02;13.90;99.90
23562;DHT22;11959;49.418;8.728;2023-05-19T06:22:29;13.90;99.90
23562;DHT22;11959;49.418;8.728;2023-05-19T06:24:54;14.00;99.90
23562;DHT22;11959;49.418;8.728;2023-05-19T06:27:20;14.00;99.90
23562;DHT22;11959;49.418;8.728;2023-05-19T06:29:46;14.10;99.90
23562;DHT22;11959;49.418;8.728;2023-05-19T06:32:11;14.00;99.90
23562;DHT22;11959;49.418;8.728;2023-05-19T06:34:37;14.10;99.90
23562;DHT22;11959;49.418;8.728;2023-05-19T06:37:04;14.10;99.90
23562;DHT22;11959;49.418;8.728;2023-05-19T06:39:30;14.10;99.90
23562;DHT22;11959;49.418;8.728;2023-05-19T06:41:56;14.10;99.90
23562;DHT22;11959;49.418;8.728;2023-05-19T06:44:21;14.10;99.90
23562;DHT22;11959;49.418;8.728;2023-05-19T06:46:47;14.20;99.90
23562;DHT22;11959;49.418;8.728;2023-05-19T06:49:12;14.20;99.90
23562;DHT22;11959;49.418;8.728;2023-05-19T06:51:38;14.30;99.90
23562;DHT22;11959;49.418;8.728;2023-05-19T06:54:04;14.30;99.90
23562;DHT22;11959;49.418;8.728;2023-05-19T06:56:29;14.40;99.90
23562;DHT22;11959;49.418;8.728;2023-05-19T06:58:55;14.40;99.90
23562;DHT22;11959;49.418;8.728;2023-05-19T07:01:21;14.40;99.90
23562;DHT22;11959;49.418;8.728;2023-05-19T07:03:46;14.40;99.90
23562;DHT22;11959;49.418;8.728;2023-05-19T07:06:12;14.50;99.90
23562;DHT22;11959;49.418;8.728;2023-05-19T07:08:38;14.60;99.90
23562;DHT22;11959;49.418;8.728;2023-05-19T07:11:04;14.60;99.90
23562;DHT22;11959;49.418;8.728;2023-05-19T07:13:29;14.70;99.90
23562;DHT22;11959;49.418;8.728;2023-05-19T07:15:57;14.80;99.90
23562;DHT22;11959;49.418;8.728;2023-05-19T07:18:22;14.80;99.90
23562;DHT22;11959;49.418;8.728;2023-05-19T07:20:50;14.80;99.90
23562;DHT22;11959;49.418;8.728;2023-05-19T07:23:16;14.80;99.90
23562;DHT22;11959;49.418;8.728;2023-05-19T07:25:41;14.90;99.90
23562;DHT22;11959;49.418;8.728;2023-05-19T07:28:07;14.90;99.90
23562;DHT22;11959;49.418;8.728;2023-05-19T07:30:32;15.00;99.90
23562;DHT22;11959;49.418;8.728;2023-05-19T07:32:58;15.00;99.90
23562;DHT22;11959;49.418;8.728;2023-05-19T07:35:25;15.10;99.90
23562;DHT22;11959;49.418;8.728;2023-05-19T07:37:51;15.10;99.90
23562;DHT22;11959;49.418;8.728;2023-05-19T07:40:17;15.10;99.90
23562;DHT22;11959;49.418;8.728;2023-05-19T07:42:43;15.10;99.90
23562;DHT22;11959;49.418;8.728;2023-05-19T07:45:09;15.20;99.90
23562;DHT22;11959;49.418;8.728;2023-05-19T07:47:35;15.10;99.90
23562;DHT22;11959;49.418;8.728;2023-05-19T07:50:01;15.10;99.90
23562;DHT22;11959;49.418;8.728;2023-05-19T07:52:27;15.30;99.90
23562;DHT22;11959;49.418;8.728;2023-05-19T07:54:53;15.20;99.90
23562;DHT22;11959;49.418;8.728;2023-05-19T07:57:18;15.30;99.90
23562;DHT22;11959;49.418;8.728;2023-05-19T07:59:44;15.40;99.90
23562;DHT22;11959;49.418;8.728;2023-05-19T08:02:10;15.50;99.90
23562;DHT22;11959;49.418;8.728;2023-05-19T08:04:35;15.50;99.90
23562;DHT22;11959;49.418;8.728;2023-05-19T08:07:01;15.60;99.90
23562;DHT22;11959;49.418;8.728;2023-05-19T08:09:27;15.80;99.90
23562;DHT22;11959;49.418;8.728;2023-05-19T08:11:53;16.00;99.90
23562;DHT22;11959;49.418;8.728;2023-05-19T08:14:19;16.00;99.90
23562;DHT22;11959;49.418;8.728;2023-05-19T08:16:47;16.10;99.90
23562;DHT22;11959;49.418;8.728;2023-05-19T08:19:13;16.20;99.90
23562;DHT22;11959;49.418;8.728;2023-05-19T08:21:38;16.20;99.90
23562;DHT22;11959;49.418;8.728;2023-05-19T08:24:07;16.30;99.90
23562;DHT22;11959;49.418;8.728;2023-05-19T08:26:33;16.30;99.90
23562;DHT22;11959;49.418;8.728;2023-05-19T08:28:58;16.40;99.90
23562;DHT22;11959;49.418;8.728;2023-05-19T08:31:24;16.40;99.90
23562;DHT22;11959;49.418;8.728;2023-05-19T08:33:50;16.50;99.90
23562;DHT22;11959;49.418;8.728;2023-05-19T08:36:15;16.60;99.90
23562;DHT22;11959;49.418;8.728;2023-05-19T08:38:41;16.80;99.90
23562;DHT22;11959;49.418;8.728;2023-05-19T08:41:07;16.80;99.90
23562;DHT22;11959;49.418;8.728;2023-05-19T08:43:33;16.90;99.90
23562;DHT22;11959;49.418;8.728;2023-05-19T08:45:59;17.00;99.90
23562;DHT22;11959;49.418;8.728;2023-05-19T08:48:28;17.00;98.40
23562;DHT22;11959;49.418;8.728;2023-05-19T08:51:26;17.10;99.70
23562;DHT22;11959;49.418;8.728;2023-05-19T08:54:01;17.10;97.20
23562;DHT22;11959;49.418;8.728;2023-05-19T08:56:29;17.10;98.30
23562;DHT22;11959;49.418;8.728;2023-05-19T08:58:56;17.10;99.30
23562;DHT22;11959;49.418;8.728;2023-05-19T09:01:25;17.10;98.90
23562;DHT22;11959;49.418;8.728;2023-05-19T09:03:53;17.20;98.00
23562;DHT22;11959;49.418;8.728;2023-05-19T09:06:19;17.30;98.70
23562;DHT22;11959;49.418;8.728;2023-05-19T09:08:45;17.30;98.80
23562;DHT22;11959;49.418;8.728;2023-05-19T09:11:12;17.40;96.20
23562;DHT22;11959;49.418;8.728;2023-05-19T09:13:38;17.30;96.70
23562;DHT22;11959;49.418;8.728;2023-05-19T09:16:04;17.40;96.40
23562;DHT22;11959;49.418;8.728;2023-05-19T09:18:31;17.50;96.80
23562;DHT22;11959;49.418;8.728;2023-05-19T09:20:57;17.50;96.70
23562;DHT22;11959;49.418;8.728;2023-05-19T09:23:29;17.50;96.10
23562;DHT22;11959;49.418;8.728;2023-05-19T09:25:56;17.60;96.30
23562;DHT22;11959;49.418;8.728;2023-05-19T09:28:27;17.70;96.80
23562;DHT22;11959;49.418;8.728;2023-05-19T09:31:04;17.80;96.70
23562;DHT22;11959;49.418;8.728;2023-05-19T09:33:32;17.80;95.40
23562;DHT22;11959;49.418;8.728;2023-05-19T09:35:58;17.90;95.20
23562;DHT22;11959;49.418;8.728;2023-05-19T09:38:24;18.10;96.00
23562;DHT22;11959;49.418;8.728;2023-05-19T09:40:51;18.20;96.90
23562;DHT22;11959;49.418;8.728;2023-05-19T09:43:17;18.30;96.50
23562;DHT22;11959;49.418;8.728;2023-05-19T09:45:43;18.40;95.80
23562;DHT22;11959;49.418;8.728;2023-05-19T09:48:09;18.40;95.70
23562;DHT22;11959;49.418;8.728;2023-05-19T09:50:34;18.60;97.00
23562;DHT22;11959;49.418;8.728;2023-05-19T09:53:00;18.80;95.40
23562;DHT22;11959;49.418;8.728;2023-05-19T09:55:28;19.00;96.40
23562;DHT22;11959;49.418;8.728;2023-05-19T09:57:54;19.10;96.30
23562;DHT22;11959;49.418;8.728;2023-05-19T10:00:22;19.10;95.60
23562;DHT22;11959;49.418;8.728;2023-05-19T10:02:48;19.10;93.50
23562;DHT22;11959;49.418;8.728;2023-05-19T10:05:18;18.90;93.20
23562;DHT22;11959;49.418;8.728;2023-05-19T10:07:52;18.90;94.40
23562;DHT22;11959;49.418;8.728;2023-05-19T10:10:19;18.90;94.20
23562;DHT22;11959;49.418;8.728;2023-05-19T10:12:46;18.70;93.70
23562;DHT22;11959;49.418;8.728;2023-05-19T10:15:13;18.80;94.80
23562;DHT22;11959;49.418;8.728;2023-05-19T10:17:40;18.90;93.10
23562;DHT22;11959;49.418;8.728;2023-05-19T10:20:14;19.00;94.40
23562;DHT22;11959;49.418;8.728;2023-05-19T10:22:41;19.20;95.00
23562;DHT22;11959;49.418;8.728;2023-05-19T10:25:07;19.40;94.10
23562;DHT22;11959;49.418;8.728;2023-05-19T10:27:40;19.70;94.10
23562;DHT22;11959;49.418;8.728;2023-05-19T10:30:15;19.90;93.90
23562;DHT22;11959;49.418;8.728;2023-05-19T10:32:43;20.20;93.70
23562;DHT22;11959;49.418;8.728;2023-05-19T10:35:13;20.30;93.50
23562;DHT22;11959;49.418;8.728;2023-05-19T10:40:56;20.30;91.70
23562;DHT22;11959;49.418;8.728;2023-05-19T10:46:03;20.40;92.30
23562;DHT22;11959;49.418;8.728;2023-05-19T10:48:32;20.40;93.10
23562;DHT22;11959;49.418;8.728;2023-05-19T10:51:02;20.20;92.70
23562;DHT22;11959;49.418;8.728;2023-05-19T10:53:31;20.10;91.60
23562;DHT22;11959;49.418;8.728;2023-05-19T10:56:00;20.10;92.00
23562;DHT22;11959;49.418;8.728;2023-05-19T11:04:06;20.40;91.40
23562;DHT22;11959;49.418;8.728;2023-05-19T11:06:33;20.40;91.50
23562;DHT22;11959;49.418;8.728;2023-05-19T11:09:18;20.40;91.70
23562;DHT22;11959;49.418;8.728;2023-05-19T11:11:50;20.30;92.30
23562;DHT22;11959;49.418;8.728;2023-05-19T11:14:25;20.30;92.00
23562;DHT22;11959;49.418;8.728;2023-05-19T11:16:55;20.20;92.10
23562;DHT22;11959;49.418;8.728;2023-05-19T11:19:29;20.10;92.00
23562;DHT22;11959;49.418;8.728;2023-05-19T11:21:56;20.20;92.50
23562;DHT22;11959;49.418;8.728;2023-05-19T11:27:23;20.10;93.00
23562;DHT22;11959;49.418;8.728;2023-05-19T11:29:49;20.10;92.70
23562;DHT22;11959;49.418;8.728;2023-05-19T11:32:15;20.00;92.70
23562;DHT22;11959;49.418;8.728;2023-05-19T11:34:43;20.00;93.10
23562;DHT22;11959;49.418;8.728;2023-05-19T11:37:09;20.00;93.10
23562;DHT22;11959;49.418;8.728;2023-05-19T11:39:35;20.10;92.70
23562;DHT22;11959;49.418;8.728;2023-05-19T11:42:01;20.10;93.10
23562;DHT22;11959;49.418;8.728;2023-05-19T11:44:27;20.10;93.30
23562;DHT22;11959;49.418;8.728;2023-05-19T11:46:52;20.10;92.90
23562;DHT22;11959;49.418;8.728;2023-05-19T11:49:18;20.10;92.90
23562;DHT22;11959;49.418;8.728;2023-05-19T11:51:47;20.10;92.50
23562;DHT22;11959;49.418;8.728;2023-05-19T11:54:12;20.00;93.40
23562;DHT22;11959;49.418;8.728;2023-05-19T11:56:42;20.00;94.30
23562;DHT22;11959;49.418;8.728;2023-05-19T11:59:08;20.00;93.90
23562;DHT22;11959;49.418;8.728;2023-05-19T12:01:34;20.10;93.10
23562;DHT22;11959;49.418;8.728;2023-05-19T12:04:07;20.10;93.20
23562;DHT22;11959;49.418;8.728;2023-05-19T12:06:33;19.90;93.40
23562;DHT22;11959;49.418;8.728;2023-05-19T12:08:59;20.00;93.40
23562;DHT22;11959;49.418;8.728;2023-05-19T12:11:27;20.00;94.10
23562;DHT22;11959;49.418;8.728;2023-05-19T12:13:57;20.00;94.50
23562;DHT22;11959;49.418;8.728;2023-05-19T12:16:30;20.00;94.00
23562;DHT22;11959;49.418;8.728;2023-05-19T12:18:56;19.90;94.40
23562;DHT22;11959;49.418;8.728;2023-05-19T12:21:22;19.80;94.30
23562;DHT22;11959;49.418;8.728;2023-05-19T12:23:48;19.90;95.00
23562;DHT22;11959;49.418;8.728;2023-05-19T12:26:13;19.90;95.10
23562;DHT22;11959;49.418;8.728;2023-05-19T12:28:39;19.90;95.50
23562;DHT22;11959;49.418;8.728;2023-05-19T12:31:05;19.80;95.10
23562;DHT22;11959;49.418;8.728;2023-05-19T12:33:34;19.80;95.30
23562;DHT22;11959;49.418;8.728;2023-05-19T12:36:00;19.70;95.30
23562;DHT22;11959;49.418;8.728;2023-05-19T12:38:25;19.60;95.70
23562;DHT22;11959;49.418;8.728;2023-05-19T12:40:51;19.40;95.50
23562;DHT22;11959;49.418;8.728;2023-05-19T12:43:21;19.40;95.70
23562;DHT22;11959;49.418;8.728;2023-05-19T12:45:47;19.40;95.90
23562;DHT22;11959;49.418;8.728;2023-05-19T12:48:13;19.40;95.80
23562;DHT22;11959;49.418;8.728;2023-05-19T12:50:42;19.40;95.60
23562;DHT22;11959;49.418;8.728;2023-05-19T12:53:15;19.30;95.80
23562;DHT22;11959;49.418;8.728;2023-05-19T12:55:42;19.40;96.10
23562;DHT22;11959;49.418;8.728;2023-05-19T12:58:09;19.40;95.50
23562;DHT22;11959;49.418;8.728;2023-05-19T13:00:45;19.40;95.80
23562;DHT22;11959;49.418;8.728;2023-05-19T13:03:15;19.40;96.10
23562;DHT22;11959;49.418;8.728;2023-05-19T13:05:43;19.40;96.10
23562;DHT22;11959;49.418;8.728;2023-05-19T13:08:12;19.40;95.70
23562;DHT22;11959;49.418;8.728;2023-05-19T13:10:41;19.40;95.60
23562;DHT22;11959;49.418;8.728;2023-05-19T13:13:07;19.30;95.70
23562;DHT22;11959;49.418;8.728;2023-05-19T13:15:40;19.30;95.70
23562;DHT22;11959;49.418;8.728;2023-05-19T13:18:07;19.20;95.70
23562;DHT22;11959;49.418;8.728;2023-05-19T13:20:35;19.20;95.90
23562;DHT22;11959;49.418;8.728;2023-05-19T13:23:01;19.30;96.10
23562;DHT22;11959;49.418;8.728;2023-05-19T13:25:27;19.30;96.20
23562;DHT22;11959;49.418;8.728;2023-05-19T13:27:53;19.40;96.10
23562;DHT22;11959;49.418;8.728;2023-05-19T13:30:19;19.40;96.60
23562;DHT22;11959;49.418;8.728;2023-05-19T13:32:46;19.40;96.10
23562;DHT22;11959;49.418;8.728;2023-05-19T13:35:13;19.20;95.70
23562;DHT22;11959;49.418;8.728;2023-05-19T13:37:40;19.20;96.00
23562;DHT22;11959;49.418;8.728;2023-05-19T13:40:07;19.00;96.40
23562;DHT22;11959;49.418;8.728;2023-05-19T13:42:33;19.00;97.10
23562;DHT22;11959;49.418;8.728;2023-05-19T13:45:00;19.00;96.60
23562;DHT22;11959;49.418;8.728;2023-05-19T13:47:25;18.90;96.40
23562;DHT22;11959;49.418;8.728;2023-05-19T13:49:52;18.80;96.80
23562;DHT22;11959;49.418;8.728;2023-05-19T13:52:18;18.90;96.50
23562;DHT22;11959;49.418;8.728;2023-05-19T13:54:45;18.80;96.70
23562;DHT22;11959;49.418;8.728;2023-05-19T13:57:10;18.90;96.80
23562;DHT22;11959;49.418;8.728;2023-05-19T13:59:36;18.90;96.90
23562;DHT22;11959;49.418;8.728;2023-05-19T14:02:02;19.00;97.30
23562;DHT22;11959;49.418;8.728;2023-05-19T14:04:29;19.00;96.90
23562;DHT22;11959;49.418;8.728;2023-05-19T14:06:54;19.10;97.00
23562;DHT22;11959;49.418;8.728;2023-05-19T14:09:20;19.20;97.20
23562;DHT22;11959;49.418;8.728;2023-05-19T14:11:46;19.30;96.40
23562;DHT22;11959;49.418;8.728;2023-05-19T14:14:12;19.30;96.40
23562;DHT22;11959;49.418;8.728;2023-05-19T14:16:39;19.30;97.00
23562;DHT22;11959;49.418;8.728;2023-05-19T14:19:04;19.20;96.80
23562;DHT22;11959;49.418;8.728;2023-05-19T14:21:30;19.20;96.30
23562;DHT22;11959;49.418;8.728;2023-05-19T14:23:57;19.20;96.80
23562;DHT22;11959;49.418;8.728;2023-05-19T14:26:23;19.20;97.00
23562;DHT22;11959;49.418;8.728;2023-05-19T14:28:49;19.10;96.70
23562;DHT22;11959;49.418;8.728;2023-05-19T14:31:15;19.20;97.50
23562;DHT22;11959;49.418;8.728;2023-05-19T14:33:41;19.30;96.60
23562;DHT22;11959;49.418;8.728;2023-05-19T14:36:07;19.40;97.10
23562;DHT22;11959;49.418;8.728;2023-05-19T14:38:33;19.50;98.10
23562;DHT22;11959;49.418;8.728;2023-05-19T14:40:59;19.70;96.80
23562;DHT22;11959;49.418;8.728;2023-05-19T14:43:25;19.70;97.70
23562;DHT22;11959;49.418;8.728;2023-05-19T14:45:50;19.90;96.70
23562;DHT22;11959;49.418;8.728;2023-05-19T14:48:16;19.80;96.50
23562;DHT22;11959;49.418;8.728;2023-05-19T14:50:43;19.90;96.80
23562;DHT22;11959;49.418;8.728;2023-05-19T14:53:09;19.90;96.60
23562;DHT22;11959;49.418;8.728;2023-05-19T14:55:35;19.90;96.60
23562;DHT22;11959;49.418;8.728;2023-05-19T14:58:01;19.80;96.50
23562;DHT22;11959;49.418;8.728;2023-05-19T15:00:26;19.80;96.50
23562;DHT22;11959;49.418;8.728;2023-05-19T15:02:52;19.70;96.70
23562;DHT22;11959;49.418;8.728;2023-05-19T15:05:18;19.60;96.80
23562;DHT22;11959;49.418;8.728;2023-05-19T15:07:44;19.60;97.60
23562;DHT22;11959;49.418;8.728;2023-05-19T15:10:10;19.70;97.00
23562;DHT22;11959;49.418;8.728;2023-05-19T15:12:36;19.70;96.30
23562;DHT22;11959;49.418;8.728;2023-05-19T15:15:02;19.70;96.80
23562;DHT22;11959;49.418;8.728;2023-05-19T15:17:29;19.60;97.00
23562;DHT22;11959;49.418;8.728;2023-05-19T15:19:55;19.70;96.40
23562;DHT22;11959;49.418;8.728;2023-05-19T15:22:21;19.80;96.90
23562;DHT22;11959;49.418;8.728;2023-05-19T15:24:46;19.90;97.30
23562;DHT22;11959;49.418;8.728;2023-05-19T15:27:12;19.90;96.30
23562;DHT22;11959;49.418;8.728;2023-05-19T15:29:38;20.00;96.30
23562;DHT22;11959;49.418;8.728;2023-05-19T15:32:04;20.00;96.20
23562;DHT22;11959;49.418;8.728;2023-05-19T15:34:29;20.00;96.00
23562;DHT22;11959;49.418;8.728;2023-05-19T15:36:55;19.80;96.40
23562;DHT22;11959;49.418;8.728;2023-05-19T15:39:20;19.70;96.80
23562;DHT22;11959;49.418;8.728;2023-05-19T15:41:46;19.70;96.90
23562;DHT22;11959;49.418;8.728;2023-05-19T15:44:14;19.60;97.40
23562;DHT22;11959;49.418;8.728;2023-05-19T15:46:39;19.70;97.80
23562;DHT22;11959;49.418;8.728;2023-05-19T15:49:05;19.70;97.20
23562;DHT22;11959;49.418;8.728;2023-05-19T15:51:31;19.70;97.40
23562;DHT22;11959;49.418;8.728;2023-05-19T15:53:56;19.60;97.10
23562;DHT22;11959;49.418;8.728;2023-05-19T15:56:22;19.50;96.90
23562;DHT22;11959;49.418;8.728;2023-05-19T15:58:48;19.50;96.50
23562;DHT22;11959;49.418;8.728;2023-05-19T16:01:14;19.50;97.00
23562;DHT22;11959;49.418;8.728;2023-05-19T16:03:40;19.50;96.80